createdAt,value
2022-10-17T00:01:43.583Z,20.45
2022-10-17T00:04:28.802Z,18.67
2022-10-17T00:07:13.408Z,16.58
2022-10-17T00:09:58.432Z,17.77
2022-10-17T00:12:43.320Z,15.45
2022-10-17T00:15:28.540Z,17.23
2022-10-17T00:18:13.256Z,15.50
2022-10-17T00:20:58.198Z,18.30
2022-10-17T00:23:43.563Z,16.15
2022-10-17T00:26:29.136Z,18.55
2022-10-17T00:29:13.855Z,19.10
2022-10-17T00:31:58.861Z,15.73
2022-10-17T00:34:44.181Z,18.38
2022-10-17T00:37:31.109Z,19.73
2022-10-17T00:40:15.986Z,17.83
2022-10-17T00:43:00.848Z,19.00
2022-10-17T00:45:45.798Z,17.83
2022-10-17T00:48:30.799Z,23.67
2022-10-17T00:51:18.388Z,31.77
2022-10-17T00:54:04.464Z,19.73
2022-10-17T00:56:49.787Z,15.50
2022-10-17T00:59:37.546Z,17.38
2022-10-17T01:02:22.981Z,20.08
2022-10-17T01:05:09.659Z,18.98
2022-10-17T01:07:56.059Z,15.70
2022-10-17T01:11:00.994Z,16.75
2022-10-17T01:14:02.251Z,16.42
2022-10-17T01:17:11.187Z,18.80
2022-10-17T01:20:06.514Z,17.17
2022-10-17T01:23:26.998Z,15.10
2022-10-17T01:26:22.399Z,18.65
2022-10-17T01:29:35.870Z,16.67
2022-10-17T01:32:50.026Z,17.23
2022-10-17T01:35:46.515Z,17.35
2022-10-17T01:38:46.254Z,17.67
2022-10-17T01:41:45.897Z,15.68
2022-10-17T01:44:40.368Z,15.68
2022-10-17T01:47:31.536Z,17.02
2022-10-17T01:50:28.050Z,18.27
2022-10-17T01:53:26.395Z,17.73
2022-10-17T01:56:14.042Z,15.73
2022-10-17T01:59:18.888Z,17.23
2022-10-17T02:02:05.864Z,15.55
2022-10-17T02:04:55.286Z,20.13
2022-10-17T02:07:41.424Z,15.40
2022-10-17T02:10:50.306Z,14.45
2022-10-17T02:13:57.003Z,18.02
2022-10-17T02:17:09.500Z,16.20
2022-10-17T02:20:15.946Z,14.05
2022-10-17T02:23:12.189Z,14.60
2022-10-17T02:26:30.499Z,17.08
2022-10-17T02:29:25.743Z,17.42
2022-10-17T02:32:17.344Z,18.42
2022-10-17T02:35:06.996Z,14.98
2022-10-17T02:37:52.904Z,16.02
2022-10-17T02:40:40.710Z,16.40
2022-10-17T02:43:25.748Z,15.65
2022-10-17T02:46:20.188Z,17.17
2022-10-17T02:49:20.506Z,16.55
2022-10-17T02:52:30.302Z,16.70
2022-10-17T02:55:20.595Z,16.65
2022-10-17T02:58:14.357Z,15.38
2022-10-17T03:00:59.946Z,16.77
2022-10-17T03:03:45.562Z,14.88
2022-10-17T03:06:30.759Z,15.50
2022-10-17T03:09:16.055Z,14.18
2022-10-17T03:12:01.465Z,22.02
2022-10-17T03:14:47.290Z,19.30
2022-10-17T03:17:32.342Z,15.60
2022-10-17T03:20:17.692Z,16.88
2022-10-17T03:23:03.430Z,15.10
2022-10-17T03:25:48.477Z,19.52
2022-10-17T03:28:34.639Z,15.23
2022-10-17T03:31:19.351Z,13.75
2022-10-17T03:34:05.426Z,15.23
2022-10-17T03:36:50.411Z,15.63
2022-10-17T03:39:36.405Z,18.60
2022-10-17T03:42:21.393Z,14.05
2022-10-17T03:45:07.093Z,18.02
2022-10-17T03:47:52.523Z,18.55
2022-10-17T03:50:37.374Z,15.68
2022-10-17T03:53:22.353Z,15.30
2022-10-17T03:56:19.249Z,17.15
2022-10-17T03:59:15.392Z,17.42
2022-10-17T04:02:04.036Z,16.35
2022-10-17T04:04:49.315Z,19.67
2022-10-17T04:07:34.076Z,17.35
2022-10-17T04:10:19.203Z,16.70
2022-10-17T04:13:05.941Z,15.93
2022-10-17T04:16:06.473Z,17.10
2022-10-17T04:18:56.348Z,16.92
2022-10-17T04:21:43.277Z,16.52
2022-10-17T04:24:28.401Z,17.88
2022-10-17T04:27:25.587Z,24.95
2022-10-17T04:30:11.478Z,30.88
2022-10-17T04:32:56.631Z,27.20
2022-10-17T04:35:41.444Z,24.55
2022-10-17T04:38:28.754Z,22.15
2022-10-17T04:41:16.657Z,17.40
2022-10-17T04:44:01.997Z,21.70
2022-10-17T04:46:49.906Z,21.60
2022-10-17T04:49:35.009Z,21.10
2022-10-17T04:52:28.329Z,17.15
2022-10-17T04:55:13.437Z,17.92
2022-10-17T04:57:58.442Z,17.38
2022-10-17T05:00:43.464Z,18.20
2022-10-17T05:03:38.060Z,16.40
2022-10-17T05:06:24.857Z,17.83
2022-10-17T05:09:32.629Z,16.23
2022-10-17T05:12:17.672Z,13.70
2022-10-17T05:15:04.170Z,18.65
2022-10-17T05:17:54.472Z,22.13
2022-10-17T05:20:40.034Z,24.33
2022-10-17T05:23:24.932Z,20.17
2022-10-17T05:26:13.801Z,17.50
2022-10-17T05:29:02.639Z,14.18
2022-10-17T05:31:49.882Z,16.83
2022-10-17T05:34:37.500Z,15.35
2022-10-17T05:37:22.776Z,13.85
2022-10-17T05:40:10.577Z,14.57
2022-10-17T05:42:55.688Z,15.90
2022-10-17T05:45:42.258Z,16.70
2022-10-17T05:48:32.248Z,17.08
2022-10-17T05:51:18.447Z,17.02
2022-10-17T05:54:05.837Z,13.50
2022-10-17T05:56:55.463Z,16.55
2022-10-17T05:59:44.016Z,16.27
2022-10-17T06:02:32.018Z,19.33
2022-10-17T06:05:17.723Z,16.33
2022-10-17T06:08:02.822Z,17.33
2022-10-17T06:10:52.197Z,15.85
2022-10-17T06:13:38.586Z,15.55
2022-10-17T06:16:29.139Z,14.15
2022-10-17T06:19:14.230Z,13.80
2022-10-17T06:21:59.410Z,11.25
2022-10-17T06:24:45.964Z,13.90
2022-10-17T06:27:33.327Z,13.15
2022-10-17T06:30:18.388Z,12.18
2022-10-17T06:33:03.584Z,11.30
2022-10-17T06:35:54.521Z,13.05
2022-10-17T06:38:41.528Z,9.75
2022-10-17T06:41:34.458Z,11.15
2022-10-17T06:44:28.058Z,9.32
2022-10-17T06:47:29.092Z,9.02
2022-10-17T06:50:19.088Z,10.85
2022-10-17T06:53:15.547Z,11.38
2022-10-17T06:56:07.813Z,9.70
2022-10-17T06:59:06.197Z,10.07
2022-10-17T07:01:55.178Z,10.05
2022-10-17T07:04:42.311Z,7.97
2022-10-17T07:07:32.150Z,11.13
2022-10-17T07:10:17.346Z,8.45
2022-10-17T07:13:03.397Z,10.27
2022-10-17T07:15:51.748Z,10.45
2022-10-17T07:18:41.869Z,12.13
2022-10-17T07:21:39.187Z,7.50
2022-10-17T07:24:27.085Z,8.77
2022-10-17T07:27:22.546Z,10.68
2022-10-17T07:30:08.656Z,10.10
2022-10-17T07:33:05.892Z,8.93
2022-10-17T07:35:52.676Z,7.00
2022-10-17T07:38:41.663Z,9.00
2022-10-17T07:41:53.836Z,9.88
2022-10-17T07:45:20.943Z,9.20
2022-10-17T07:52:02.470Z,9.23
2022-10-17T07:55:09.114Z,7.97
2022-10-17T07:58:05.849Z,8.52
2022-10-17T08:04:04.937Z,8.63
2022-10-17T08:06:53.412Z,8.52
2022-10-17T08:09:43.765Z,6.82
2022-10-17T08:15:33.665Z,8.25
2022-10-17T08:18:18.993Z,7.93
2022-10-17T08:21:09.214Z,11.30
2022-10-17T08:23:54.264Z,7.53
2022-10-17T08:27:00.227Z,6.15
2022-10-17T08:29:53.726Z,7.78
2022-10-17T08:32:44.475Z,8.23
2022-10-17T08:35:29.620Z,8.18
2022-10-17T08:38:18.877Z,7.10
2022-10-17T08:41:35.170Z,8.13
2022-10-17T08:44:27.186Z,7.55
2022-10-17T08:47:41.925Z,8.13
2022-10-17T08:54:02.203Z,12.07
2022-10-17T08:56:54.131Z,7.55
2022-10-17T08:59:39.477Z,8.75
2022-10-17T09:02:30.996Z,10.40
2022-10-17T09:05:29.913Z,7.95
2022-10-17T09:08:24.873Z,8.75
2022-10-17T09:11:36.994Z,10.73
2022-10-17T09:14:38.155Z,11.27
2022-10-17T09:17:52.362Z,8.10
2022-10-17T09:20:53.922Z,9.00
2022-10-17T09:23:53.222Z,10.52
2022-10-17T09:26:47.012Z,10.48
2022-10-17T09:29:43.584Z,9.10
2022-10-17T09:32:29.458Z,7.55
2022-10-17T09:35:15.202Z,7.93
2022-10-17T09:38:01.674Z,9.25
2022-10-17T09:40:57.969Z,8.77
2022-10-17T09:43:43.203Z,9.15
2022-10-17T09:46:36.239Z,7.05
2022-10-17T09:49:39.511Z,9.07
2022-10-17T09:52:35.692Z,10.43
2022-10-17T09:55:39.784Z,8.93
2022-10-17T09:58:45.723Z,7.88
2022-10-17T10:01:31.241Z,12.50
2022-10-17T10:04:27.634Z,10.70
2022-10-17T10:07:17.590Z,9.65
2022-10-17T10:10:05.863Z,8.80
2022-10-17T10:13:22.120Z,8.68
2022-10-17T10:16:21.587Z,12.85
2022-10-17T10:19:29.391Z,8.88
2022-10-17T10:22:16.917Z,10.75
2022-10-17T10:25:15.833Z,8.05
2022-10-17T10:28:01.619Z,10.43
2022-10-17T10:30:53.319Z,8.45
2022-10-17T10:33:45.921Z,8.20
2022-10-17T10:36:48.382Z,9.93
2022-10-17T10:39:39.039Z,8.50
2022-10-17T10:42:37.346Z,8.52
2022-10-17T10:45:49.441Z,9.23
2022-10-17T10:48:36.448Z,9.63
2022-10-17T10:51:40.040Z,8.35
2022-10-17T10:54:35.358Z,10.05
2022-10-17T10:57:23.224Z,13.25
2022-10-17T11:00:12.026Z,8.80
2022-10-17T11:03:51.428Z,9.60
2022-10-17T11:06:44.591Z,10.02
2022-10-17T11:10:51.165Z,10.10
2022-10-17T11:14:09.657Z,9.85
2022-10-17T11:17:19.596Z,9.32
2022-10-17T11:20:07.335Z,11.20
2022-10-17T11:22:58.409Z,9.32
2022-10-17T11:25:43.656Z,12.05
2022-10-17T11:28:31.358Z,9.20
2022-10-17T11:31:45.970Z,8.55
2022-10-17T11:34:39.203Z,10.45
2022-10-17T11:37:29.772Z,9.77
2022-10-17T11:40:25.150Z,13.18
2022-10-17T11:43:23.005Z,9.00
2022-10-17T11:46:19.655Z,8.93
2022-10-17T11:49:19.804Z,13.00
2022-10-17T11:52:44.080Z,10.93
2022-10-17T11:55:30.583Z,10.82
2022-10-17T11:58:36.400Z,12.55
2022-10-17T12:01:29.985Z,8.07
2022-10-17T12:04:41.337Z,10.85
2022-10-17T12:07:53.034Z,10.27
2022-10-17T12:11:03.567Z,8.55
2022-10-17T12:13:51.345Z,10.73
2022-10-17T12:16:38.399Z,9.43
2022-10-17T12:19:25.952Z,9.43
2022-10-17T12:22:28.212Z,12.55
2022-10-17T12:25:23.072Z,9.75
2022-10-17T12:28:29.675Z,9.73
2022-10-17T12:31:18.512Z,10.52
2022-10-17T12:34:05.435Z,12.25
2022-10-17T12:36:50.257Z,10.18
2022-10-17T12:39:35.103Z,9.77
2022-10-17T12:42:31.916Z,9.15
2022-10-17T12:45:57.124Z,9.55
2022-10-17T12:48:41.908Z,10.68
2022-10-17T12:51:37.632Z,10.02
2022-10-17T12:54:23.801Z,9.00
2022-10-17T12:57:35.253Z,9.25
2022-10-17T13:00:23.189Z,10.82
2022-10-17T13:03:13.665Z,10.90
2022-10-17T13:06:06.101Z,9.02
2022-10-17T13:09:03.841Z,9.48
2022-10-17T13:11:50.469Z,8.10
2022-10-17T13:14:40.533Z,11.60
2022-10-17T13:17:28.862Z,8.07
2022-10-17T13:20:25.461Z,8.40
2022-10-17T13:23:30.224Z,8.50
2022-10-17T13:26:19.653Z,10.32
2022-10-17T13:29:06.178Z,9.63
2022-10-17T13:32:00.493Z,10.80
2022-10-17T13:34:45.276Z,12.07
2022-10-17T13:37:30.298Z,10.90
2022-10-17T13:40:50.964Z,9.05
2022-10-17T13:43:26.696Z,9.77
2022-10-17T13:46:37.847Z,9.63
2022-10-17T13:49:36.836Z,11.50
2022-10-17T13:52:24.638Z,8.10
2022-10-17T13:55:17.529Z,9.07
2022-10-17T13:58:16.698Z,9.18
2022-10-17T14:01:02.083Z,9.70
2022-10-17T14:03:49.788Z,12.30
2022-10-17T14:06:49.501Z,12.70
2022-10-17T14:09:36.013Z,13.82
2022-10-17T14:12:21.944Z,14.95
2022-10-17T14:15:14.563Z,14.45
2022-10-17T14:18:07.352Z,14.82
2022-10-17T14:24:13.767Z,11.88
2022-10-17T14:27:00.025Z,17.67
2022-10-17T14:29:53.113Z,18.98
2022-10-17T14:32:37.823Z,20.30
2022-10-17T14:35:41.212Z,23.55
2022-10-17T14:38:29.119Z,35.65
2022-10-17T14:41:44.737Z,43.55
2022-10-17T14:44:35.366Z,32.38
2022-10-17T14:47:43.280Z,26.80
2022-10-17T14:50:31.481Z,25.10
2022-10-17T14:53:16.610Z,22.33
2022-10-17T14:56:05.505Z,21.65
2022-10-17T14:58:51.510Z,20.13
2022-10-17T15:01:36.159Z,20.75
2022-10-17T15:04:21.098Z,19.33
2022-10-17T15:07:05.986Z,21.80
2022-10-17T15:09:53.112Z,17.88
2022-10-17T15:12:37.952Z,18.88
2022-10-17T15:15:22.962Z,23.65
2022-10-17T15:18:11.243Z,25.30
2022-10-17T15:21:05.056Z,30.25
2022-10-17T15:23:51.815Z,38.13
2022-10-17T15:26:37.033Z,37.08
2022-10-17T15:29:21.612Z,39.33
2022-10-17T15:32:06.474Z,36.33
2022-10-17T15:34:51.634Z,40.13
2022-10-17T15:37:36.604Z,37.65
2022-10-17T15:40:24.572Z,36.75
2022-10-17T15:43:09.606Z,41.53
2022-10-17T15:45:54.352Z,41.42
2022-10-17T15:48:40.449Z,37.20
2022-10-17T15:51:25.370Z,45.95
2022-10-17T15:54:10.339Z,54.55
2022-10-17T15:56:55.625Z,49.97
2022-10-17T15:59:40.696Z,61.58
2022-10-17T16:02:26.202Z,69.95
2022-10-17T16:05:18.643Z,72.00
2022-10-17T16:08:03.720Z,86.60
2022-10-17T16:10:49.176Z,89.55
2022-10-17T16:13:33.807Z,102.55
2022-10-17T16:16:20.142Z,101.40
2022-10-17T16:19:05.178Z,98.00
2022-10-17T16:21:50.181Z,93.13
2022-10-17T16:24:35.064Z,98.10
2022-10-17T16:27:19.940Z,91.25
2022-10-17T16:30:06.872Z,90.82
2022-10-17T16:32:52.799Z,87.20
2022-10-17T16:35:38.080Z,88.72
2022-10-17T16:38:22.778Z,96.80
2022-10-17T16:41:21.113Z,116.28
2022-10-17T16:44:15.866Z,111.90
2022-10-17T16:47:00.850Z,105.40
2022-10-17T16:49:45.993Z,98.35
2022-10-17T16:52:30.991Z,89.60
2022-10-17T16:55:18.398Z,79.50
2022-10-17T16:58:03.051Z,82.00
2022-10-17T17:00:48.253Z,75.78
2022-10-17T17:03:41.896Z,71.75
2022-10-17T17:06:28.561Z,66.20
2022-10-17T17:09:13.726Z,60.33
2022-10-17T17:11:58.970Z,57.90
2022-10-17T17:14:43.889Z,59.95
2022-10-17T17:17:44.341Z,59.80
2022-10-17T17:20:33.850Z,56.53
2022-10-17T17:23:18.608Z,52.78
2022-10-17T17:26:11.509Z,53.10
2022-10-17T17:28:58.679Z,51.88
2022-10-17T17:31:43.836Z,55.42
2022-10-17T17:34:28.814Z,60.40
2022-10-17T17:37:13.879Z,56.03
2022-10-17T17:39:58.901Z,56.33
2022-10-17T17:42:43.899Z,53.50
2022-10-17T17:45:28.807Z,48.72
2022-10-17T17:48:14.066Z,53.75
2022-10-17T17:51:04.098Z,50.95
2022-10-17T17:53:49.467Z,49.45
2022-10-17T17:56:35.049Z,53.75
2022-10-17T17:59:19.740Z,50.05
2022-10-17T18:02:06.225Z,53.40
2022-10-17T18:04:51.343Z,60.90
2022-10-17T18:07:37.182Z,66.13
2022-10-17T18:10:21.909Z,91.45
2022-10-17T18:13:06.762Z,99.80
2022-10-17T18:15:57.461Z,94.35
2022-10-17T18:18:44.430Z,90.43
2022-10-17T18:21:29.094Z,88.65
2022-10-17T18:24:14.051Z,78.25
2022-10-17T18:26:59.375Z,63.00
2022-10-17T18:29:47.631Z,61.78
2022-10-17T18:32:32.716Z,55.00
2022-10-17T18:35:17.723Z,55.85
2022-10-17T18:38:02.756Z,57.63
2022-10-17T18:40:50.021Z,60.65
2022-10-17T18:43:37.755Z,55.42
2022-10-17T18:46:26.137Z,54.22
2022-10-17T18:49:15.700Z,46.83
2022-10-17T18:52:00.723Z,52.45
2022-10-17T18:54:45.579Z,46.90
2022-10-17T18:57:30.753Z,45.13
2022-10-17T19:00:16.782Z,42.78
2022-10-17T19:03:03.619Z,49.03
2022-10-17T19:05:48.458Z,54.03
2022-10-17T19:08:35.715Z,49.85
2022-10-17T19:11:25.723Z,48.10
2022-10-17T19:14:14.528Z,41.33
2022-10-17T19:16:59.468Z,43.40
2022-10-17T19:19:44.735Z,37.28
2022-10-17T19:22:30.694Z,44.35
2022-10-17T19:25:15.393Z,48.75
2022-10-17T19:28:00.373Z,47.03
2022-10-17T19:30:45.296Z,48.70
2022-10-17T19:33:31.767Z,82.32
2022-10-17T19:36:17.061Z,89.57
2022-10-17T19:39:04.949Z,61.58
2022-10-17T19:41:49.705Z,59.22
2022-10-17T19:44:34.988Z,57.92
2022-10-17T19:47:19.825Z,53.60
2022-10-17T19:50:05.847Z,50.83
2022-10-17T19:52:51.535Z,47.85
2022-10-17T19:55:36.215Z,47.63
2022-10-17T19:58:21.334Z,42.40
2022-10-17T20:01:06.337Z,40.50
2022-10-17T20:03:51.889Z,40.13
2022-10-17T20:06:37.411Z,38.97
2022-10-17T20:09:24.507Z,37.03
2022-10-17T20:12:09.334Z,39.78
2022-10-17T20:14:54.266Z,35.38
2022-10-17T20:17:39.382Z,34.22
2022-10-17T20:20:24.932Z,29.90
2022-10-17T20:23:09.883Z,34.08
2022-10-17T20:26:08.671Z,30.50
2022-10-17T20:29:10.091Z,32.47
2022-10-17T20:31:56.125Z,29.77
2022-10-17T20:34:40.976Z,27.73
2022-10-17T20:37:26.513Z,32.95
2022-10-17T20:43:16.900Z,30.65
2022-10-17T20:46:15.584Z,31.95
2022-10-17T20:49:08.123Z,26.80
2022-10-17T20:51:52.901Z,25.83
2022-10-17T20:54:37.951Z,30.85
2022-10-17T20:57:22.779Z,26.42
2022-10-17T21:00:08.549Z,26.27
2022-10-17T21:02:53.324Z,27.20
2022-10-17T21:05:39.311Z,25.45
2022-10-17T21:08:24.309Z,23.55
2022-10-17T21:11:12.224Z,26.70
2022-10-17T21:14:02.152Z,28.50
2022-10-17T21:16:47.941Z,28.25
2022-10-17T21:19:33.166Z,22.75
2022-10-17T21:22:19.366Z,24.00
2022-10-17T21:25:05.224Z,24.90
2022-10-17T21:27:51.940Z,25.83
2022-10-17T21:30:36.705Z,24.25
2022-10-17T21:33:21.463Z,27.58
2022-10-17T21:36:07.511Z,27.20
2022-10-17T21:38:53.722Z,23.60
2022-10-17T21:41:38.983Z,27.27
2022-10-17T21:44:25.217Z,26.92
2022-10-17T21:47:10.025Z,26.52
2022-10-17T21:49:55.521Z,24.98
2022-10-17T21:52:40.485Z,25.00
2022-10-17T21:55:25.434Z,26.00
2022-10-17T21:58:10.542Z,23.80
2022-10-17T22:01:13.639Z,25.50
2022-10-17T22:04:01.247Z,25.92
2022-10-17T22:06:50.444Z,26.23
2022-10-17T22:09:35.301Z,25.77
2022-10-17T22:12:20.195Z,24.65
2022-10-17T22:15:05.971Z,25.35
2022-10-17T22:17:50.740Z,22.67
2022-10-17T22:20:35.763Z,24.13
2022-10-17T22:23:20.700Z,24.05
2022-10-17T22:26:06.287Z,24.92
2022-10-17T22:28:51.342Z,21.73
2022-10-17T22:31:37.261Z,27.15
2022-10-17T22:34:22.107Z,21.80
2022-10-17T22:37:07.223Z,24.08
2022-10-17T22:39:52.313Z,23.05
2022-10-17T22:42:37.230Z,22.35
2022-10-17T22:45:22.220Z,26.60
2022-10-17T22:48:08.146Z,26.13
2022-10-17T22:50:54.183Z,26.55
2022-10-17T22:53:39.289Z,25.95
2022-10-17T22:56:23.931Z,21.27
2022-10-17T22:59:08.854Z,22.00
2022-10-17T23:01:53.727Z,24.88
2022-10-17T23:04:38.646Z,22.83
2022-10-17T23:07:23.737Z,27.52
2022-10-17T23:10:08.984Z,25.85
2022-10-17T23:12:54.119Z,27.38
2022-10-17T23:15:39.450Z,24.88
2022-10-17T23:18:26.545Z,23.42
2022-10-17T23:21:12.014Z,23.20
2022-10-17T23:23:56.895Z,26.30
2022-10-17T23:26:41.934Z,25.15
2022-10-17T23:29:32.013Z,29.65
2022-10-17T23:32:19.517Z,27.60
2022-10-17T23:35:05.446Z,27.98
2022-10-17T23:37:50.286Z,27.02
2022-10-17T23:40:35.426Z,29.63
2022-10-17T23:43:20.332Z,27.75
2022-10-17T23:46:06.228Z,28.10
2022-10-17T23:48:50.967Z,25.25
2022-10-17T23:51:35.884Z,24.67
2022-10-17T23:54:20.888Z,29.60
2022-10-17T23:57:05.768Z,26.55
2022-10-17T23:59:50.763Z,24.65
